KJZP

Pickens County Airport

Jasper, Georgia, USA
METAR KJZP 221335Z AUTO 21004KT 10SM CLR 10/02 A3037 RMK AO2 T00950019 PNO
Observed Flight Rules
Oct-22 @ 13:35 UTC (46 minutes ago) Visual Flight Rules
Wind Visibility Clouds
210° at 4 knots 10 miles
  • Clear skies
Temperatures Readings
Current 10°C / 50°F
Dewpoint 2°C / 36°F
Humidity 58%
Altimeter 30.37" Hg
Pressure 1028 hPa
Elevation 468
METAR KJZP 221335Z AUTO 21004KT 10SM CLR 10/02 A3037 RMK AO2 T00950019 PNO
Observed Flight Rules
Oct-22 @ 13:35 UTC
(46 minutes ago)
VFR
Wind Visibility
210° at 4 knots 10 miles
Clouds
  • Clear skies
Temperature Dewpoint
10°C / 50°F 2°C / 36°F
Humidity Altimeter Pressure
58% 30.37" Hg 1028 hPa